Tiempo atmosférico en la estación meteorológica de Antigua, Las Palmas (252 m.)



Fecha
DESCASC
Temp. máxima en grados centígrados (hora)
DESCASC
Temp. mínima en grados centígrados (hora)
DESCASC
Temp. media en grados centígrados
DESCASC
Racha de viento máxima en m/sg (hora)
DESCASC
Velocidad máxima media en intervalos de 10 minutos(hora)
DESCASC
Precipitaciones diarias en mm
DESCASC
Precipitaciones de 00:00 a 06:00 en mm
DESCASC
Precipitaciones de 06:00 a 12:00 en mm
DESCASC
Precipitaciones de 12:00 a 18:00 en mm
DESCASC
Precipitaciones de 18:00 a 24:00 en mm
DESCASC
03-12-2020 21.4 (12:40) 12.8 (07:30) 17.1 5.28 (01:30) 4.17 (01:30) 0 0 0 0 0
02-12-2020 21.8 (14:40) 15.1 (07:30) 18.4 10 (12:50) 7.5 (13:00) 0 0 0 0 0
01-12-2020 21.3 (13:20) 15 (07:40) 18.1 11.39 (03:50) 8.61 (05:40) 0 0 0 0 0
30-11-2020 20.2 (14:10) 15.8 (00:00) 18 14.17 (15:30) 9.17 (14:40) 0.4 0.2 0 0.2 0
29-11-2020 20 (14:10) 13.8 (00:00) 16.9 11.39 (04:10) 7.5 (06:10) 2 1.4 0 0.6 0
28-11-2020 20.6 (12:30) 14.4 (00:00) 17.5 9.72 (15:00) 6.67 (15:00) 0 0 0 0 0
27-11-2020 19.2 (13:00) 13.4 (00:00) 16.3 16.11 (13:20) 11.11 (12:30) 1.2 0 0.8 0 0.4
26-11-2020 17.4 (10:50) 12.3 (00:00) 14.8 15.83 (18:50) 10.83 (16:40) 1.6 0.4 0 1.2 0
25-11-2020 22.3 (12:10) 12.9 (00:00) 17.6 14.17 (21:50) 8.89 (22:30) 5 0 0 0 5
24-11-2020 23.2 (14:00) 16.6 (00:00) 19.9 6.94 (18:30) 4.72 (18:40) 0 0 0 0 0
23-11-2020 25 (14:30) 16.1 (00:00) 20.6 8.89 (13:00) 6.11 (13:30) 0 0 0 0 0
22-11-2020 22.4 (14:40) 15.7 (00:00) 19 7.5 (12:30) 5 (15:30) 0 0 0 0 0
21-11-2020 24.8 (12:30) 16.1 (00:00) 20.4 9.17 (13:10) 6.11 (11:40) 0 0 0 0 0
20-11-2020 25.4 (15:10) 16.2 (00:00) 20.8 11.11 (11:10) 8.06 (12:30) 0 0 0 0 0
19-11-2020 23.3 (12:30) 17.6 (00:00) 20.4 11.39 (03:10) 8.61 (02:40) 0 0 0 0 0
18-11-2020 31.5 (13:30) 19.5 (00:00) 25.5 12.5 (15:50) 8.89 (16:40) 0 0 0 0 0
17-11-2020 30.8 (14:50) 19.3 (00:00) 25 6.11 (13:10) 3.89 (13:10) 0 0 0 0 0
16-11-2020 -- (--) -- (--) -- 7.78 (15:00) 5.28 (14:50) -- 0 0 -- 0
15-11-2020 29 (16:00) 19.4 (00:00) 24.2 8.89 (15:40) 6.11 (16:30) 0 0 0 0 0
14-11-2020 -- (--) -- (--) -- -- (--) -- (--) -- 0 -- 0 0
13-11-2020 24 (13:30) 17.2 (00:00) 20.6 5.83 (23:00) 3.61 (12:40) 0 0 0 0 0
12-11-2020 25.5 (14:10) 16.8 (00:00) 21.1 5.83 (00:20) 4.44 (00:10) 0 0 0 0 0
11-11-2020 24 (14:00) 13.8 (00:00) 18.9 9.72 (19:40) 6.11 (19:30) 0 0 0 0 0
10-11-2020 -- (--) -- (--) -- -- (--) -- (--) -- -- 0 0 0
09-11-2020 22.6 (13:20) 12.8 (00:00) 17.7 8.89 (11:00) 6.11 (11:40) 0 0 0 0 0
08-11-2020 22.4 (14:00) 13.3 (00:00) 17.8 8.89 (13:40) 4.17 (15:20) 0 0 0 0 0
07-11-2020 -- (--) -- (--) -- -- (--) -- (--) -- -- 0 0 0
06-11-2020 22 (12:20) 15.9 (00:00) 18.9 17.5 (10:10) 10.56 (10:40) 0.8 0.6 0 0.2 0
05-11-2020 -- (--) -- (--) -- -- (--) -- (--) -- -- 0 0 0.2

Gráficas

Temp. máximas Temp. mínimas Temp. medias Precipitaciones Rachas de viento máximas Velocidades máximas media en intervalos de 10 minutos

Datos horarios

Fecha y hora oficial Temperatura (ºC) Velocidad del viento (km/h) Dirección del viento Racha (km/h) Dirección de racha Precipitación (mm) Presión (hPa) Tendencia (hPa) Humedad (%)
2020-12-04 23:00:00 16.4 14 Noroeste 21 Noroeste 0 -- -- 80
2020-12-04 22:00:00 16.2 13 Noroeste 25 Norte 0 -- -- 80
2020-12-04 21:00:00 16.4 15 Norte 22 Norte 0 -- -- 81
2020-12-04 20:00:00 16.4 14 Noroeste 27 Noroeste 0 -- -- 77
2020-12-04 19:00:00 17 19 Noroeste 33 Norte 0 -- -- 76
2020-12-04 18:00:00 17.6 23 Norte 34 Norte 0 -- -- 78
2020-12-04 17:00:00 17.9 26 Norte 36 Noroeste 0 -- -- 77
2020-12-04 16:00:00 19.6 22 Noroeste 35 Noroeste 0 -- -- 71
2020-12-04 15:00:00 19.4 21 Noroeste 32 Noroeste 0 -- -- 72
2020-12-04 14:00:00 20.8 20 Noroeste 28 Noroeste 0 -- -- 64
2020-12-04 13:00:00 20.4 15 Noroeste 27 Noroeste 0 -- -- 67
2020-12-04 12:00:00 19.9 18 Noroeste 29 Norte 0 -- -- 67
2020-12-04 11:00:00 19.2 17 Norte 25 Noroeste 0 -- -- 75
2020-12-04 10:00:00 18.4 18 Norte 23 Norte 0 -- -- 84
2020-12-04 09:00:00 16.7 13 Noroeste 18 Norte 0 -- -- 95
2020-12-04 08:00:00 14 8 Norte 9 Norte 0 -- -- 97
2020-12-04 07:00:00 13.2 2 Norte 5 Nordeste 0 -- -- 96
2020-12-04 06:00:00 13.1 3 Norte 9 Noroeste 0 -- -- 96
2020-12-04 05:00:00 13.1 8 Norte 10 Noroeste 0 -- -- 94
2020-12-04 04:00:00 13.2 6 Noroeste 10 Noroeste 0 -- -- 93
2020-12-04 03:00:00 12.8 8 Noroeste 9 Norte 0 -- -- 89
2020-12-04 02:00:00 13.1 5 Oeste 8 Oeste 0 -- -- 91
2020-12-04 01:00:00 13.3 3 Oeste 6 Oeste 0 -- -- 90
2020-12-04 00:00:00 13.8 4 Oeste 7 Oeste 0 -- -- 89
2020-12-03 23:00:00 14.6 4 Noroeste 12 Noroeste 0 -- -- 91
2020-12-03 22:00:00 15.3 10 Noroeste 13 Noroeste 0 -- -- 89
2020-12-03 21:00:00 15.3 4 Norte 14 Noroeste 0 -- -- 87
2020-12-03 20:00:00 16.1 7 Noroeste 10 Noroeste 0 -- -- 86
2020-12-03 19:00:00 17 7 Noroeste 13 Noroeste 0 -- -- 81
2020-12-03 18:00:00 18.3 12 Noroeste 15 Noroeste 0 -- -- 74
2020-12-03 17:00:00 19.7 9 Noroeste 13 Noroeste 0 -- -- 64
2020-12-03 16:00:00 19.6 7 Noroeste 15 Noroeste 0 -- -- 65
2020-12-03 15:00:00 19.6 6 Nordeste 17 Nordeste 0 -- -- 73
2020-12-03 14:00:00 20.1 10 Este 17 Nordeste 0 -- -- 68
2020-12-03 13:00:00 20.6 11 Norte 18 Norte 0 -- -- 64
2020-12-03 12:00:00 21 7 Nordeste 11 Nordeste 0 -- -- 58
2020-12-03 11:00:00 20 5 Noroeste 13 Norte 0 -- -- 65
2020-12-03 10:00:00 19.1 8 Norte 12 Norte 0 -- -- 72
2020-12-03 09:00:00 16.5 0 Calma 7 Noroeste 0 -- -- 86
2020-12-03 08:00:00 13.3 5 Noroeste 11 Noroeste 0 -- -- 89
2020-12-03 07:00:00 13.3 5 Noroeste 9 Norte 0 -- -- 89
2020-12-03 06:00:00 14 2 Noroeste 8 Norte 0 -- -- 90
2020-12-03 05:00:00 14.8 5 Noroeste 8 Noroeste 0 -- -- 91
2020-12-03 04:00:00 14.7 4 Noroeste 16 Oeste 0 -- -- 89
2020-12-03 03:00:00 14.7 3 Norte 13 Oeste 0 -- -- 91
2020-12-03 02:00:00 16.2 12 Oeste 19 Oeste 0 -- -- 89
2020-12-03 01:00:00 15.7 3 Norte 17 Sudoeste 0 -- -- 88
2020-12-03 00:00:00 16.3 9 Sudoeste 15 Oeste 0 -- -- 90
2020-12-02 23:00:00 16 3 Noroeste 8 Oeste 0 -- -- 88
2020-12-02 22:00:00 16.5 4 Sudoeste 8 Sudoeste 0 -- -- 87
2020-12-02 21:00:00 17.4 2 Oeste 22 Oeste 0 -- -- 85
2020-12-02 20:00:00 17.6 18 Oeste 27 Oeste 0 -- -- 84
2020-12-02 19:00:00 18 17 Oeste 23 Sudoeste 0 -- -- 82
2020-12-02 18:00:00 18.9 15 Sudoeste 23 Oeste 0 -- -- 73
2020-12-02 17:00:00 19.8 15 Oeste 24 Oeste 0 -- -- 72
2020-12-02 16:00:00 20.7 18 Sur 33 Sur 0 -- -- 63
2020-12-02 15:00:00 21.7 19 Sur 31 Sur 0 -- -- 64
2020-12-02 14:00:00 21.2 19 Sur 34 Sur 0 -- -- 65
2020-12-02 13:00:00 20.4 27 Sur 36 Sur 0 -- -- 70
2020-12-02 12:00:00 19.8 19 Sur 35 Sur 0 -- -- 74
2020-12-02 11:00:00 20.3 22 Sur 32 Sur 0 -- -- 76
2020-12-02 10:00:00 19.4 22 Sur 32 Sur 0 -- -- 81
2020-12-02 09:00:00 17.2 6 Sudeste 11 Sudeste 0 -- -- 88
2020-12-02 08:00:00 15.3 2 Este 9 Este 0 -- -- 92
2020-12-02 07:00:00 15.4 7 Este 10 Este 0 -- -- 93
2020-12-02 06:00:00 16 6 Sur 16 Sur 0 -- -- 93
2020-12-02 05:00:00 15.8 3 Este 13 Sudoeste 0 -- -- 92
2020-12-02 04:00:00 15.8 5 Sudoeste 14 Sur 0 -- -- 90
2020-12-02 03:00:00 16.6 9 Sur 19 Sur 0 -- -- 87
2020-12-02 02:00:00 17 14 Sur 22 Sudoeste 0 -- -- 88
2020-12-02 01:00:00 16.5 7 Sudeste 21 Sudoeste 0 -- -- 88
2020-12-02 00:00:00 17.2 13 Sur 33 Sudoeste 0 -- -- 83
2020-12-01 23:00:00 17.6 25 Sudoeste 34 Sudoeste 0 -- -- 77
2020-12-01 22:00:00 17.5 20 Sur 36 Sudoeste 0 -- -- 82
2020-12-01 21:00:00 17.3 13 Sur 22 Sur 0 -- -- 84
2020-12-01 20:00:00 17.8 17 Sudoeste 27 Sudoeste 0 -- -- 80
2020-12-01 19:00:00 18 16 Sur 27 Sur 0 -- -- 78
2020-12-01 18:00:00 18.6 17 Sur 35 Sur 0 -- -- 73
2020-12-01 17:00:00 19.6 22 Sur 35 Sur 0 -- -- 67
2020-12-01 16:00:00 20.7 27 Sur 39 Sur 0 -- -- 61
2020-12-01 15:00:00 21 27 Sur 40 Sur 0 -- -- 61
2020-12-01 14:00:00 21 24 Sur 39 Sur 0 -- -- 62
2020-12-01 13:00:00 21.1 24 Sur 36 Sur 0 -- -- 60
2020-12-01 12:00:00 20.6 20 Sur 37 Sur 0 -- -- 65
2020-12-01 11:00:00 19.8 19 Sur 31 Sur 0 -- -- 74
2020-12-01 10:00:00 19.3 15 Sur 24 Sur 0 -- -- 80
2020-12-01 09:00:00 18 14 Sur 21 Sur 0 -- -- 85
2020-12-01 08:00:00 15.6 7 Sur 15 Sur 0 -- -- 87
2020-12-01 07:00:00 16.3 13 Sur 28 Sudoeste 0 -- -- 78
2020-12-01 06:00:00 16.9 27 Sudoeste 40 Sudoeste 0 -- -- 77
2020-12-01 05:00:00 17.2 26 Sudoeste 41 Sudoeste 0 -- -- 79
2020-12-01 04:00:00 17.3 29 Sudoeste 41 Sudoeste 0 -- -- 82
2020-12-01 03:00:00 17.2 24 Sudoeste 39 Sudoeste 0 -- -- 80
2020-12-01 02:00:00 17.3 23 Sudoeste 33 Sur 0 -- -- 82
2020-12-01 01:00:00 17.4 22 Sudoeste 36 Sudoeste 0 -- -- 81
2020-12-01 00:00:00 17.3 21 Sudoeste 36 Sur 0 -- -- 81
2020-11-30 23:00:00 17.4 21 Sur 34 Sur 0 -- -- 80
2020-11-30 22:00:00 17.5 23 Sur 36 Sur 0 -- -- 82
2020-11-30 21:00:00 17.3 20 Sur 29 Sur 0 -- -- 80
2020-11-30 20:00:00 17.6 23 Sur 35 Sur 0 -- -- 78
2020-11-30 19:00:00 17.7 19 Sur 35 Sur 0 -- -- 78
2020-11-30 18:00:00 18.1 22 Sur 41 Sur 0 -- -- 74
2020-11-30 17:00:00 18.9 24 Sur 43 Sur 0 -- -- 70
2020-11-30 16:00:00 19.6 32 Sur 51 Sur 0 -- -- 65
2020-11-30 15:00:00 20.2 32 Sur 49 Sur 0 -- -- 63
2020-11-30 14:00:00 20.1 31 Sur 47 Sur 0 -- -- 67
2020-11-30 13:00:00 18.7 27 Sudoeste 41 Sur 0.2 -- -- 77
2020-11-30 12:00:00 18.9 17 Sudoeste 30 Sur 0 -- -- 76
2020-11-30 11:00:00 19.8 22 Sur 32 Sudoeste 0 -- -- 67
2020-11-30 10:00:00 19 15 Sudoeste 32 Sudoeste 0 -- -- 73
2020-11-30 09:00:00 17.5 8 Sur 19 Sur 0 -- -- 78
2020-11-30 08:00:00 15.8 10 Sudoeste 25 Sudoeste 0 -- -- 80
2020-11-30 07:00:00 16.4 14 Sudoeste 23 Sudoeste 0 -- -- 82
2020-11-30 06:00:00 16.9 9 Sudoeste 26 Sudoeste 0 -- -- 80
2020-11-30 05:00:00 16.9 14 Sudoeste 36 Sur 0 -- -- 82
2020-11-30 04:00:00 17.1 17 Sudoeste 46 Oeste 0 -- -- 81
2020-11-30 03:00:00 17.2 28 Sudoeste 46 Sudoeste 0 -- -- 83
2020-11-30 02:00:00 16.9 24 Sudoeste 37 Sudoeste 0 -- -- 87
2020-11-30 01:00:00 16.4 16 Sur 28 Sur 0.2 -- -- 86
2020-11-30 00:00:00 15.9 18 Sur 27 Sudoeste 0 -- -- 94
2020-11-29 23:00:00 15.1 3 Sur 10 Sudeste 0 -- -- 94
2020-11-29 22:00:00 15 8 Sur 13 Sur 0 -- -- 94
2020-11-29 21:00:00 14.5 6 Sudeste 13 Sudeste 0 -- -- 93
2020-11-29 20:00:00 14.5 9 Sudeste 19 Sur 0 -- -- 94
2020-11-29 19:00:00 14.8 17 Sur 23 Sur 0 -- -- 93
2020-11-29 18:00:00 15.4 12 Sur 19 Sur 0 -- -- 90
2020-11-29 17:00:00 15.9 12 Sudoeste 22 Sudoeste 0.6 -- -- 84
2020-11-29 16:00:00 17.7 11 Sur 22 Sudeste 0 -- -- 80
2020-11-29 15:00:00 18.9 12 Sur 18 Noroeste 0 -- -- 73
2020-11-29 14:00:00 19.9 14 Noroeste 21 Oeste 0 -- -- 62
2020-11-29 13:00:00 18.3 14 Norte 22 Noroeste 0 -- -- 65
2020-11-29 12:00:00 18.1 13 Noroeste 31 Noroeste 0 -- -- 69
2020-11-29 11:00:00 17.8 21 Noroeste 30 Noroeste 0 -- -- 76
2020-11-29 10:00:00 16.6 20 Noroeste 26 Noroeste 0 -- -- 84
2020-11-29 09:00:00 15.3 18 Noroeste 31 Noroeste 0 -- -- 90
2020-11-29 08:00:00 14.5 21 Noroeste 31 Noroeste 0 -- -- 91
2020-11-29 07:00:00 14 23 Noroeste 39 Noroeste 0 -- -- 94
2020-11-29 06:00:00 15.6 23 Noroeste 41 Oeste 0 -- -- 90
2020-11-29 05:00:00 16.4 18 Oeste 41 Oeste 0 -- -- 89
2020-11-29 04:00:00 17 18 Oeste 38 Oeste 1.4 -- -- 86
2020-11-29 03:00:00 17.1 16 Oeste 36 Oeste 0 -- -- 80
2020-11-29 02:00:00 17.1 21 Oeste 39 Oeste 0 -- -- 80
2020-11-29 01:00:00 16.8 20 Oeste 35 Oeste 0 -- -- 80
2020-11-29 00:00:00 16.7 6 Oeste 31 Oeste 0 -- -- 85
2020-11-28 23:00:00 16.8 12 Oeste 26 Noroeste 0 -- -- 84
2020-11-28 22:00:00 16.9 13 Oeste 25 Oeste 0 -- -- 83
2020-11-28 21:00:00 16.7 6 Oeste 25 Noroeste 0 -- -- 86
2020-11-28 20:00:00 16.8 15 Oeste 25 Noroeste 0 -- -- 83
2020-11-28 19:00:00 16.7 21 Noroeste 31 Noroeste 0 -- -- 83
2020-11-28 18:00:00 17.4 17 Noroeste 31 Noroeste 0 -- -- 79
2020-11-28 17:00:00 17.9 20 Noroeste 32 Oeste 0 -- -- 79
2020-11-28 16:00:00 18.9 21 Noroeste 34 Oeste 0 -- -- 73
2020-11-28 15:00:00 19.1 24 Oeste 35 Oeste 0 -- -- 72
2020-11-28 14:00:00 20.6 19 Noroeste 31 Oeste 0 -- -- 63
2020-11-28 13:00:00 20.4 18 Noroeste 31 Oeste 0 -- -- 65
2020-11-28 12:00:00 20.2 14 Noroeste 26 Noroeste 0 -- -- 69
2020-11-28 11:00:00 -- 13 Noroeste 25 Noroeste 0 -- -- --
2020-11-28 10:00:00 18.7 12 Noroeste 24 Noroeste 0 -- -- 75
2020-11-28 09:00:00 17.7 12 Noroeste 17 Noroeste 0 -- -- 82
2020-11-28 08:00:00 15.3 4 Noroeste 13 Norte 0 -- -- 91
2020-11-28 07:00:00 15.3 10 Noroeste 22 Noroeste 0 -- -- 88
2020-11-28 06:00:00 14.6 9 Noroeste 15 Noroeste 0 -- -- 91
2020-11-28 05:00:00 14.5 7 Norte 13 Noroeste 0 -- -- 92
2020-11-28 04:00:00 14.9 9 Norte 15 Noroeste 0 -- -- 92
2020-11-28 03:00:00 15.1 10 Noroeste 24 Noroeste 0 -- -- 88
2020-11-28 02:00:00 16 18 Noroeste 34 Noroeste 0 -- -- 85
2020-11-28 01:00:00 16.2 15 Noroeste 31 Noroeste 0 -- -- 82
2020-11-28 00:00:00 15.7 27 Noroeste 40 Noroeste 0.4 -- -- 83
2020-11-27 23:00:00 16.8 25 Noroeste 40 Noroeste 0 -- -- 78
2020-11-27 22:00:00 16.8 28 Noroeste 48 Noroeste 0 -- -- 74
2020-11-27 21:00:00 16.8 30 Noroeste 47 Noroeste 0 -- -- 72
2020-11-27 20:00:00 17 33 Noroeste 45 Noroeste 0 -- -- 75
2020-11-27 19:00:00 16.8 30 Noroeste 49 Noroeste 0 -- -- 72
2020-11-27 18:00:00 16.9 31 Noroeste 45 Noroeste 0 -- -- 74
2020-11-27 17:00:00 16.4 29 Noroeste 57 Noroeste 0 -- -- 79
2020-11-27 16:00:00 18.2 29 Noroeste 56 Noroeste 0 -- -- 72
2020-11-27 15:00:00 17.6 36 Noroeste 54 Oeste 0 -- -- 73
2020-11-27 14:00:00 18.3 35 Noroeste 58 Oeste 0 -- -- 67
2020-11-27 13:00:00 19.2 34 Noroeste 56 Noroeste 0 -- -- 59
2020-11-27 12:00:00 18.5 38 Noroeste 54 Noroeste 0 -- -- 56
2020-11-27 11:00:00 18.1 33 Noroeste 46 Noroeste 0 -- -- 58
2020-11-27 10:00:00 17.2 27 Noroeste 40 Noroeste 0 -- -- 64
2020-11-27 09:00:00 16 21 Noroeste 32 Oeste 0 -- -- 67
2020-11-27 08:00:00 14.3 23 Noroeste 49 Noroeste 0.8 -- -- 77
2020-11-27 07:00:00 14.2 16 Noroeste 39 Noroeste 0 -- -- 73
2020-11-27 06:00:00 14.7 26 Noroeste 43 Noroeste 0 -- -- 67
2020-11-27 05:00:00 14.2 28 Noroeste 48 Noroeste 0 -- -- 67
2020-11-27 04:00:00 14.2 25 Noroeste 49 Noroeste 0 -- -- 72
2020-11-27 03:00:00 14.6 27 Noroeste 44 Noroeste 0 -- -- 66
2020-11-27 02:00:00 14.5 27 Noroeste 41 Noroeste 0 -- -- 71
2020-11-27 01:00:00 14.3 28 Noroeste 40 Noroeste 0 -- -- 67
2020-11-27 00:00:00 14 25 Noroeste 42 Noroeste 0 -- -- 71
2020-11-26 23:00:00 13.5 25 Noroeste 44 Noroeste 0 -- -- 77
2020-11-26 22:00:00 13.3 22 Noroeste 51 Noroeste 0 -- -- 80
2020-11-26 21:00:00 12.8 10 Noroeste 39 Noroeste 0 -- -- 88
2020-11-26 20:00:00 14 26 Noroeste 42 Noroeste 0 -- -- 82
2020-11-26 19:00:00 -- 36 Noroeste 57 Noroeste 0 -- -- --
2020-11-26 18:00:00 15.1 29 Noroeste 51 Noroeste 0 -- -- 72
2020-11-26 17:00:00 14.6 33 Noroeste 55 Noroeste 0 -- -- 82
2020-11-26 16:00:00 15.7 29 Noroeste 53 Noroeste 0 -- -- 74
2020-11-26 15:00:00 15.6 27 Noroeste 55 Oeste 0 -- -- 80
2020-11-26 14:00:00 14.8 28 Noroeste 53 Oeste 1.2 -- -- 84
2020-11-26 13:00:00 16.7 27 Noroeste 51 Oeste 0 -- -- 75
2020-11-26 12:00:00 17 33 Noroeste 53 Noroeste 0 -- -- 71
2020-11-26 11:00:00 15.3 38 Noroeste 55 Noroeste 0 -- -- 75
2020-11-26 10:00:00 16.5 30 Oeste 54 Oeste 0 -- -- 70
2020-11-26 09:00:00 15.5 23 Noroeste 43 Noroeste 0 -- -- 68
2020-11-26 08:00:00 15.3 26 Noroeste 40 Noroeste 0 -- -- 64
2020-11-26 07:00:00 14.7 28 Noroeste 49 Noroeste 0 -- -- 71
2020-11-26 06:00:00 15.2 25 Noroeste 40 Noroeste 0 -- -- 66
2020-11-26 05:00:00 14.9 31 Noroeste 50 Noroeste 0 -- -- 66
2020-11-26 04:00:00 14.8 26 Noroeste 48 Noroeste 0 -- -- 72
2020-11-26 03:00:00 15 28 Noroeste 40 Noroeste 0 -- -- 73
2020-11-26 02:00:00 14.2 19 Noroeste 40 Noroeste 0.4 -- -- 81
2020-11-26 01:00:00 15.2 24 Noroeste 38 Noroeste 0 -- -- 78
2020-11-26 00:00:00 15.6 29 Noroeste 47 Noroeste 0 -- -- 75
2020-11-25 23:00:00 15.6 29 Noroeste 50 Noroeste 0 -- -- 75
2020-11-25 22:00:00 15 30 Noroeste 51 Noroeste 3.2 -- -- 91
2020-11-25 21:00:00 15.9 21 Noroeste 37 Noroeste 0.6 -- -- 88
2020-11-25 20:00:00 15.7 30 Noroeste 45 Noroeste 0.8 -- -- 89
2020-11-25 19:00:00 16.9 32 Norte 45 Norte 0.4 -- -- 88
2020-11-25 18:00:00 18.7 22 Noroeste 40 Noroeste 0 -- -- 70
2020-11-25 17:00:00 19.4 20 Noroeste 42 Oeste 0 -- -- 70
2020-11-25 16:00:00 20.5 26 Noroeste 40 Noroeste 0 -- -- 64
2020-11-25 15:00:00 22.1 22 Noroeste 35 Noroeste 0 -- -- 55
2020-11-25 14:00:00 21.4 21 Noroeste 39 Noroeste 0 -- -- 60
2020-11-25 13:00:00 21.5 24 Noroeste 35 Noroeste 0 -- -- 58
2020-11-25 12:00:00 22.2 11 Noroeste 22 Oeste 0 -- -- 51
2020-11-25 11:00:00 22.2 11 Noroeste 21 Noroeste 0 -- -- 37
2020-11-25 10:00:00 20.4 18 Noroeste 25 Norte 0 -- -- 59
2020-11-25 09:00:00 17 2 Oeste 9 Noroeste 0 -- -- 48
2020-11-25 08:00:00 14.3 0 Calma 6 Este 0 -- -- 39
2020-11-25 07:00:00 13.4 4 Noroeste 10 Noroeste 0 -- -- 41
2020-11-25 06:00:00 14.2 3 Oeste 6 Sudoeste 0 -- -- 74
2020-11-25 05:00:00 15.7 6 Sudoeste 8 Sur 0 -- -- 55
2020-11-25 04:00:00 15.9 5 Noroeste 13 Noroeste 0 -- -- 37
2020-11-25 03:00:00 17.6 13 Noroeste 18 Noroeste 0 -- -- 35
2020-11-25 02:00:00 17.8 13 Noroeste 15 Noroeste 0 -- -- 31
2020-11-25 01:00:00 16.7 4 Noroeste 10 Noroeste 0 -- -- 34
2020-11-25 00:00:00 17.2 8 Noroeste 14 Norte 0 -- -- 37
2020-11-24 23:00:00 17.6 8 Noroeste 11 Noroeste 0 -- -- 38
2020-11-24 22:00:00 17.5 4 Norte 10 Noroeste 0 -- -- 43
2020-11-24 21:00:00 18.6 10 Noroeste 23 Noroeste 0 -- -- 47
2020-11-24 20:00:00 19.8 15 Noroeste 21 Noroeste 0 -- -- 47
2020-11-24 19:00:00 19.6 15 Noroeste 25 Noroeste 0 -- -- 48
2020-11-24 18:00:00 21.6 5 Nordeste 8 Nordeste 0 -- -- 34
2020-11-24 17:00:00 22.9 2 Nordeste 11 Este 0 -- -- 30
2020-11-24 16:00:00 23.1 4 Sudeste 13 Sudeste 0 -- -- 31
2020-11-24 15:00:00 22.8 8 Este 21 Sudeste 0 -- -- 32
2020-11-24 14:00:00 23.2 10 Sudeste 19 Este 0 -- -- 33
2020-11-24 13:00:00 22.3 10 Este 22 Este 0 -- -- 38
2020-11-24 12:00:00 22.9 10 Sudeste 23 Sudeste 0 -- -- 40
2020-11-24 11:00:00 21.1 11 Este 18 Este 0 -- -- 57
2020-11-24 10:00:00 20.1 6 Este 12 Este 0 -- -- 68
2020-11-24 09:00:00 18.7 0 Calma 6 Sur 0 -- -- 79
2020-11-24 08:00:00 17.1 4 Sudoeste 9 Sudoeste 0 -- -- 77
2020-11-24 07:00:00 16.7 5 Sudoeste 8 Sudoeste 0 -- -- 80
2020-11-24 06:00:00 16.7 4 Sur 8 Sudoeste 0 -- -- 83
2020-11-24 05:00:00 17.3 5 Sur 10 Sudoeste 0 -- -- 87
2020-11-24 04:00:00 17.6 4 Sur 11 Sudeste 0 -- -- 82
2020-11-24 03:00:00 17.9 4 Sur 14 Sudeste 0 -- -- 74
2020-11-24 02:00:00 18.2 5 Sudeste 15 Sudeste 0 -- -- 61
2020-11-24 01:00:00 18.8 7 Sur 11 Sudeste 0 -- -- 41
2020-11-24 00:00:00 18.4 5 Sudoeste 9 Sur 0 -- -- 43
2020-11-23 23:00:00 18.9 5 Sur 6 Sur 0 -- -- 49
2020-11-23 22:00:00 18.2 3 Sudoeste 5 Sudoeste 0 -- -- 61
2020-11-23 21:00:00 18.2 0 Calma 3 Sur 0 -- -- 52
2020-11-23 20:00:00 18.9 0 Calma 7 Noroeste 0 -- -- 46
2020-11-23 19:00:00 19.4 6 Noroeste 8 Noroeste 0 -- -- 37
2020-11-23 18:00:00 21.9 3 Nordeste 9 Sudeste 0 -- -- 34
2020-11-23 17:00:00 23.1 7 Este 27 Sudeste 0 -- -- 31
2020-11-23 16:00:00 24.7 14 Sudeste 27 Sudeste 0 -- -- 27
2020-11-23 15:00:00 25 16 Sur 30 Sur 0 -- -- 30
2020-11-23 14:00:00 24.7 17 Sur 30 Sudeste 0 -- -- 30
2020-11-23 13:00:00 24.4 18 Sudeste 32 Sudeste 0 -- -- 34
2020-11-23 12:00:00 23.4 20 Sudeste 30 Sudeste 0 -- -- 37
2020-11-23 11:00:00 22.1 18 Sudeste 27 Sudeste 0 -- -- 56
2020-11-23 10:00:00 19.7 12 Este 23 Este 0 -- -- 89
2020-11-23 09:00:00 17.9 4 Sudoeste 10 Sudoeste 0 -- -- 95
2020-11-23 08:00:00 17 6 Sur 11 Sur 0 -- -- 96
2020-11-23 07:00:00 16.7 7 Sur 9 Sur 0 -- -- 95
2020-11-23 06:00:00 16.4 4 Sur 9 Sudoeste 0 -- -- 94
2020-11-23 05:00:00 16.6 5 Sur 13 Sur 0 -- -- 94
2020-11-23 04:00:00 16.8 6 Sur 10 Sudeste 0 -- -- 92
2020-11-23 03:00:00 16.4 3 Oeste 9 Oeste 0 -- -- 92
2020-11-23 02:00:00 17.3 3 Sudoeste 9 Oeste 0 -- -- 90
2020-11-23 01:00:00 17.4 3 Oeste 10 Sudeste 0 -- -- 86
2020-11-23 00:00:00 17.3 2 Sur 7 Sudoeste 0 -- -- 61
2020-11-22 23:00:00 16.9 4 Noroeste 12 Noroeste 0 -- -- 51
2020-11-22 22:00:00 16 9 Noroeste 11 Noroeste 0 -- -- 55
2020-11-22 21:00:00 15.8 8 Noroeste 10 Noroeste 0 -- -- 76
2020-11-22 20:00:00 17 5 Noroeste 16 Noroeste 0 -- -- 83
2020-11-22 19:00:00 18 6 Norte 12 Nordeste 0 -- -- 82
2020-11-22 18:00:00 19.6 8 Este 15 Este 0 -- -- 73
2020-11-22 17:00:00 21.1 11 Este 20 Este 0 -- -- 65
2020-11-22 16:00:00 21.5 14 Este 23 Este 0 -- -- 66
2020-11-22 15:00:00 22.3 15 Este 23 Este 0 -- -- 63
2020-11-22 14:00:00 22.1 14 Este 26 Este 0 -- -- 65
2020-11-22 13:00:00 22.2 15 Este 27 Este 0 -- -- 66
2020-11-22 12:00:00 22.1 11 Este 23 Este 0 -- -- 65
2020-11-22 11:00:00 20.8 12 Nordeste 22 Este 0 -- -- 74
2020-11-22 10:00:00 20.5 14 Este 21 Este 0 -- -- 75
2020-11-22 09:00:00 19.2 4 Este 9 Este 0 -- -- 84
2020-11-22 08:00:00 17 3 Sudoeste 10 Sudoeste 0 -- -- 88
2020-11-22 07:00:00 17.2 3 Oeste 8 Sudoeste 0 -- -- 88
2020-11-22 06:00:00 16.7 3 Noroeste 7 Noroeste 0 -- -- 84
2020-11-22 05:00:00 17.3 4 Noroeste 10 Oeste 0 -- -- 82
2020-11-22 04:00:00 17.3 0 Calma 10 Oeste 0 -- -- 62
2020-11-22 03:00:00 17.3 8 Oeste 12 Oeste 0 -- -- 62
2020-11-22 02:00:00 18 4 Noroeste 13 Oeste 0 -- -- 57
2020-11-22 01:00:00 17.9 6 Noroeste 13 Norte 0 -- -- 66
2020-11-22 00:00:00 17.5 8 Noroeste 12 Noroeste 0 -- -- 72
2020-11-21 23:00:00 17.5 5 Noroeste 8 Oeste 0 -- -- 67
2020-11-21 22:00:00 -- 7 Noroeste 10 Noroeste 0 -- -- --
2020-11-21 21:00:00 18.3 5 Noroeste 9 Noroeste 0 -- -- 40
2020-11-21 20:00:00 18.4 6 Noroeste 9 Noroeste 0 -- -- 41
2020-11-21 19:00:00 20 2 Sur 8 Sudeste 0 -- -- 41
2020-11-21 18:00:00 21.4 8 Este 18 Este 0 -- -- 38
2020-11-21 17:00:00 23.1 12 Este 27 Este 0 -- -- 33
2020-11-21 16:00:00 23.8 18 Este 29 Sudeste 0 -- -- 33
2020-11-21 15:00:00 24.7 18 Sudeste 30 Este 0 -- -- 31
2020-11-21 14:00:00 24.7 17 Sudeste 33 Sudeste 0 -- -- 31
2020-11-21 13:00:00 24.8 19 Sudeste 28 Sudeste 0 -- -- 32
2020-11-21 12:00:00 24.5 15 Sudeste 29 Este 0 -- -- 32
2020-11-21 11:00:00 23.5 15 Sudeste 23 Este 0 -- -- 42
2020-11-21 10:00:00 21 14 Este 20 Este 0 -- -- 69
2020-11-21 09:00:00 18.5 6 Sur 9 Sudeste 0 -- -- 86
2020-11-21 08:00:00 17.3 5 Sur 8 Oeste 0 -- -- 89
2020-11-21 07:00:00 16.4 3 Sudoeste 8 Sudoeste 0 -- -- 91
2020-11-21 06:00:00 16.9 3 Sur 5 Sur 0 -- -- 90
2020-11-21 05:00:00 16.5 0 Calma 5 Sudoeste 0 -- -- 87
2020-11-21 04:00:00 17.2 3 Sudoeste 6 Sudoeste 0 -- -- 87
2020-11-21 03:00:00 17.6 3 Sur 7 Sudeste 0 -- -- 84
2020-11-21 02:00:00 17.7 5 Sudoeste 11 Sudeste 0 -- -- 81
2020-11-21 01:00:00 18.1 6 Sudeste 17 Sudeste 0 -- -- 74
2020-11-21 00:00:00 18.5 5 Sur 12 Sur 0 -- -- 62
2020-11-20 23:00:00 19.6 6 Sur 11 Sudoeste 0 -- -- 47
2020-11-20 22:00:00 20.2 5 Sur 11 Sudeste 0 -- -- 41
2020-11-20 21:00:00 20.1 6 Sur 12 Sudeste 0 -- -- 41
2020-11-20 20:00:00 20.7 0 Calma 9 Sudeste 0 -- -- 39
2020-11-20 19:00:00 20.6 3 Sur 9 Este 0 -- -- 41
2020-11-20 18:00:00 22.6 3 Sur 16 Este 0 -- -- 39
2020-11-20 17:00:00 23.9 12 Este 23 Sudeste 0 -- -- 39
2020-11-20 16:00:00 25 16 Sudeste 27 Este 0 -- -- 33
2020-11-20 15:00:00 25.3 17 Sudeste 32 Sudeste 0 -- -- 31
2020-11-20 14:00:00 25 21 Sudeste 36 Sudeste 0 -- -- 29
2020-11-20 13:00:00 24.6 23 Sudeste 40 Sudeste 0 -- -- 33
2020-11-20 12:00:00 23.9 28 Sudeste 40 Sudeste 0 -- -- 35
2020-11-20 11:00:00 23.1 24 Sudeste 37 Sudeste 0 -- -- 41
2020-11-20 10:00:00 21.9 21 Sudeste 37 Sudeste 0 -- -- 49
2020-11-20 09:00:00 19.7 10 Sur 15 Sudeste 0 -- -- 71
2020-11-20 08:00:00 16.2 4 Sur 9 Sur 0 -- -- 95
2020-11-20 07:00:00 16.7 4 Sudeste 8 Sur 0 -- -- 95
2020-11-20 06:00:00 16.9 5 Sur 9 Sur 0 -- -- 93
2020-11-20 05:00:00 17.3 6 Sur 12 Sudeste 0 -- -- 89
2020-11-20 04:00:00 17.2 4 Sur 11 Sudoeste 0 -- -- 91
2020-11-20 03:00:00 16.9 0 Calma 8 Oeste 0 -- -- 92
2020-11-20 02:00:00 16.9 3 Oeste 9 Oeste 0 -- -- 92
2020-11-20 01:00:00 17 5 Noroeste 10 Noroeste 0 -- -- 91
2020-11-20 00:00:00 17.6 5 Norte 19 Nordeste 0 -- -- 90
2020-11-19 23:00:00 17.7 9 Norte 20 Nordeste 0 -- -- 90
2020-11-19 22:00:00 17.8 6 Norte 18 Nordeste 0 -- -- 89
2020-11-19 21:00:00 18.3 10 Nordeste 17 Nordeste 0 -- -- 88
2020-11-19 20:00:00 18.6 2 Norte 24 Nordeste 0 -- -- 86
2020-11-19 19:00:00 18.9 17 Nordeste 27 Nordeste 0 -- -- 86
2020-11-19 18:00:00 19.5 12 Nordeste 22 Nordeste 0 -- -- 82
2020-11-19 17:00:00 20.8 16 Nordeste 27 Nordeste 0 -- -- 76
2020-11-19 16:00:00 21.6 15 Nordeste 29 Este 0 -- -- 72
2020-11-19 15:00:00 22.3 18 Nordeste 30 Nordeste 0 -- -- 70
2020-11-19 14:00:00 23 18 Nordeste 32 Este 0 -- -- 65
2020-11-19 13:00:00 23.2 22 Nordeste 31 Nordeste 0 -- -- 67
2020-11-19 12:00:00 23.2 18 Nordeste 30 Nordeste 0 -- -- 66
2020-11-19 11:00:00 22.5 12 Nordeste 29 Norte 0 -- -- 67
2020-11-19 10:00:00 21.1 16 Norte 33 Norte 0 -- -- 75
2020-11-19 09:00:00 19.6 24 Norte 33 Norte 0 -- -- 87
2020-11-19 08:00:00 18.3 23 Noroeste 31 Noroeste 0 -- -- 92
2020-11-19 07:00:00 18.1 24 Noroeste 34 Noroeste 0 -- -- 91
2020-11-19 06:00:00 18.2 20 Noroeste 33 Noroeste 0 -- -- 90
2020-11-19 05:00:00 18.5 22 Noroeste 30 Noroeste 0 -- -- 90
2020-11-19 04:00:00 18.7 21 Noroeste 41 Noroeste 0 -- -- 88
2020-11-19 03:00:00 18.9 30 Noroeste 40 Noroeste 0 -- -- 88
2020-11-19 02:00:00 18.8 25 Noroeste 36 Noroeste 0 -- -- 89
2020-11-19 01:00:00 19.2 26 Noroeste 34 Noroeste 0 -- -- 85
2020-11-19 00:00:00 19.9 18 Norte 27 Noroeste 0 -- -- 63
2020-11-18 23:00:00 20.3 15 Norte 29 Noroeste 0 -- -- 62
2020-11-18 22:00:00 21.8 21 Noroeste 38 Noroeste 0 -- -- 41
2020-11-18 21:00:00 20.9 26 Noroeste 39 Noroeste 0 -- -- 55
2020-11-18 20:00:00 21.8 26 Noroeste 36 Noroeste 0 -- -- 42
2020-11-18 19:00:00 22.7 19 Noroeste 29 Noroeste 0 -- -- 33
2020-11-18 18:00:00 23.6 24 Noroeste 36 Noroeste 0 -- -- 39
2020-11-18 17:00:00 24 31 Noroeste 42 Norte 0 -- -- 50
2020-11-18 16:00:00 27 31 Norte 45 Norte 0 -- -- 31
2020-11-18 15:00:00 30.5 21 Noroeste 27 Noroeste 0 -- -- 25
2020-11-18 14:00:00 31.4 14 Norte 22 Sudeste 0 -- -- 23
2020-11-18 13:00:00 31.3 7 Este 18 Este 0 -- -- 20
2020-11-18 12:00:00 30.5 10 Este 16 Este 0 -- -- 21
2020-11-18 11:00:00 29.4 8 Norte 14 Norte 0 -- -- 24
2020-11-18 10:00:00 28.2 2 Norte 6 Sudeste 0 -- -- 24
2020-11-18 09:00:00 25 4 Sur 6 Sur 0 -- -- 28
2020-11-18 08:00:00 20 3 Noroeste 5 Oeste 0 -- -- 35
2020-11-18 07:00:00 22.4 4 Sudoeste 9 Sudoeste 0 -- -- 33
2020-11-18 06:00:00 21.4 5 Sur 9 Sudoeste 0 -- -- 37
2020-11-18 05:00:00 21.4 4 Sudoeste 9 Sur 0 -- -- 42
2020-11-18 04:00:00 21.3 3 Sudoeste 8 Sudoeste 0 -- -- 39
2020-11-18 03:00:00 21 3 Sudoeste 6 Noroeste 0 -- -- 45
2020-11-18 02:00:00 21.6 4 Nordeste 9 Noroeste 0 -- -- 41
2020-11-18 01:00:00 22.8 4 Oeste 9 Oeste 0 -- -- 28
2020-11-18 00:00:00 23.9 3 Oeste 9 Noroeste 0 -- -- 27
2020-11-17 23:00:00 23 6 Noroeste 13 Noroeste 0 -- -- 29
2020-11-17 22:00:00 21.9 10 Noroeste 14 Noroeste 0 -- -- 30
2020-11-17 21:00:00 22.4 6 Oeste 10 Noroeste 0 -- -- 29
2020-11-17 20:00:00 23.5 4 Noroeste 10 Noroeste 0 -- -- 28
2020-11-17 19:00:00 24.6 8 Noroeste 14 Norte 0 -- -- 27
2020-11-17 18:00:00 27.7 8 Nordeste 14 Este 0 -- -- 23
2020-11-17 17:00:00 29.5 9 Este 18 Este 0 -- -- 21
2020-11-17 16:00:00 30.3 13 Este 22 Este 0 -- -- 21
2020-11-17 15:00:00 30.7 12 Este 20 Este 0 -- -- 22
2020-11-17 14:00:00 30.3 12 Este 22 Este 0 -- -- 24
2020-11-17 13:00:00 30.4 14 Este 22 Este 0 -- -- 25
2020-11-17 12:00:00 30.4 9 Sudeste 17 Este 0 -- -- 24
2020-11-17 11:00:00 28.9 8 Este 13 Este 0 -- -- 25
2020-11-17 10:00:00 27.7 4 Este 7 Sudeste 0 -- -- 27
2020-11-17 09:00:00 25.3 0 Calma 7 Noroeste 0 -- -- 31
2020-11-17 08:00:00 20.2 5 Noroeste 8 Noroeste 0 -- -- 38
2020-11-17 07:00:00 19.6 6 Oeste 12 Oeste 0 -- -- 38
2020-11-17 06:00:00 22.6 5 Oeste 11 Oeste 0 -- -- 33
2020-11-17 05:00:00 22.1 0 Calma 10 Oeste 0 -- -- 39
2020-11-17 04:00:00 21.8 3 Sudoeste 9 Sudoeste 0 -- -- 43
2020-11-17 03:00:00 20.6 4 Sur 8 Sur 0 -- -- 40
2020-11-17 02:00:00 21.2 2 Sudoeste 9 Noroeste 0 -- -- 41
2020-11-17 01:00:00 22.1 7 Noroeste 11 Noroeste 0 -- -- 29
2020-11-17 00:00:00 21.3 6 Noroeste 9 Noroeste 0 -- -- 29
2020-11-16 23:00:00 22 6 Noroeste 9 Noroeste 0 -- -- 29
2020-11-16 22:00:00 21.4 5 Noroeste 10 Noroeste 0 -- -- 28
2020-11-16 21:00:00 22.1 9 Noroeste 11 Norte 0 -- -- 27
2020-11-16 20:00:00 23.6 5 Noroeste 8 Oeste 0 -- -- 25
2020-11-16 19:00:00 24.3 5 Noroeste 8 Oeste 0 -- -- 24
2020-11-16 18:00:00 28.2 5 Sur 14 Sur 0 -- -- 21
2020-11-16 17:00:00 30 7 Sur -- -- -- -- -- 19
2020-11-16 16:00:00 30.6 15 Sur 26 Sudeste 0 -- -- 18
2020-11-16 15:00:00 30.7 18 Sur 28 Sur 0 -- -- 18
2020-11-16 14:00:00 30.2 18 Sudeste 27 Sudeste 0 -- -- 21
2020-11-16 13:00:00 30.2 18 Sudeste 28 Sudeste 0 -- -- 22
2020-11-16 12:00:00 29.1 10 Sudeste 17 Sudeste 0 -- -- 29
2020-11-16 11:00:00 28.4 11 Sudeste 17 Este 0 -- -- 32
2020-11-16 10:00:00 26.2 5 Este 18 Este 0 -- -- 32
2020-11-16 09:00:00 24.6 2 Noroeste 8 Oeste 0 -- -- 32
2020-11-16 08:00:00 21.9 3 Sudoeste 9 Oeste 0 -- -- 34
2020-11-16 07:00:00 23.3 3 Sudoeste 5 Sur 0 -- -- 30
2020-11-16 06:00:00 21.9 0 Calma 7 Sudoeste 0 -- -- 31
2020-11-16 05:00:00 22.8 2 Noroeste 4 Noroeste 0 -- -- 31
2020-11-16 04:00:00 23.3 5 Noroeste 9 Noroeste 0 -- -- 29
2020-11-16 03:00:00 24.2 3 Sudoeste 9 Sudoeste 0 -- -- 30
2020-11-16 02:00:00 21.2 4 Oeste 6 Oeste 0 -- -- 46
2020-11-16 01:00:00 22 3 Oeste 9 Oeste 0 -- -- 49
2020-11-16 00:00:00 20.5 3 Sudoeste 8 Sudoeste 0 -- -- 71
2020-11-15 23:00:00 20.7 3 Sur 10 Sudeste 0 -- -- 71
2020-11-15 22:00:00 22.4 4 Norte 9 Noroeste 0 -- -- 31
2020-11-15 21:00:00 22.4 3 Noroeste 10 Noroeste 0 -- -- 32
2020-11-15 20:00:00 23.7 2 Norte 9 Este 0 -- -- 32
2020-11-15 19:00:00 24.9 0 Calma 11 Sur 0 -- -- 36
2020-11-15 18:00:00 26.2 10 Sudeste 24 Sur 0 -- -- 33
2020-11-15 17:00:00 28.2 19 Sur 30 Sur 0 -- -- 23
2020-11-15 16:00:00 29 18 Sur 32 Sur 0 -- -- 26
2020-11-15 15:00:00 28.2 18 Sur 27 Sudoeste 0 -- -- 35
2020-11-15 14:00:00 27.4 17 Sur 28 Sur 0 -- -- 41
2020-11-15 13:00:00 27.8 19 Sur 30 Sur 0 -- -- 30
2020-11-15 12:00:00 28.2 14 Sur 23 Sur 0 -- -- 25
2020-11-15 11:00:00 26.6 14 Sudeste 23 Sudeste 0 -- -- 33
2020-11-15 10:00:00 22.7 3 Nordeste 8 Nordeste 0 -- -- 50
2020-11-15 09:00:00 22.3 3 Sudeste 7 Sudoeste 0 -- -- 42
2020-11-15 08:00:00 20.4 2 Sudeste 9 Norte 0 -- -- 41
2020-11-15 07:00:00 20.4 2 Sur 13 Noroeste 0 -- -- 43
2020-11-15 06:00:00 20.3 5 Norte 14 Sudeste 0 -- -- 37
2020-11-15 05:00:00 21.6 9 Sudeste 15 Sudeste 0 -- -- 34
2020-11-15 04:00:00 22.3 2 Nordeste 6 Este 0 -- -- 30
2020-11-15 03:00:00 22.4 3 Noroeste 6 Este 0 -- -- 31
2020-11-15 02:00:00 22.3 4 Noroeste 12 Noroeste 0 -- -- 32
2020-11-15 01:00:00 -- -- -- -- -- -- -- -- --
2020-11-15 00:00:00 -- -- -- -- -- -- -- -- --
2020-11-14 23:00:00 -- -- -- -- -- -- -- -- --
2020-11-14 22:00:00 -- -- -- -- -- -- -- -- --
2020-11-14 21:00:00 -- -- -- -- -- -- -- -- --
2020-11-14 20:00:00 -- -- -- -- -- -- -- -- --
2020-11-14 19:00:00 -- -- -- -- -- -- -- -- --
2020-11-14 18:00:00 -- -- -- -- -- -- -- -- --
2020-11-14 17:00:00 -- -- -- -- -- -- -- -- --
2020-11-14 16:00:00 -- -- -- -- -- -- -- -- --
2020-11-14 15:00:00 -- -- -- -- -- -- -- -- --
2020-11-14 14:00:00 -- -- -- -- -- -- -- -- --
2020-11-14 13:00:00 -- -- -- -- -- -- -- -- --
2020-11-14 12:00:00 -- -- -- -- -- -- -- -- --
2020-11-14 11:00:00 -- -- -- -- -- -- -- -- --
2020-11-14 10:00:00 -- -- -- -- -- -- -- -- --
2020-11-14 09:00:00 -- -- -- -- -- -- -- -- --
2020-11-14 08:00:00 24.1 10 Sur 15 Sur 0 -- -- 46
2020-11-14 07:00:00 25.1 12 Sur 32 Sur 0 -- -- 44
2020-11-14 06:00:00 24.4 13 Sur 32 Sur 0 -- -- 46
2020-11-14 05:00:00 24.5 21 Sur 35 Sur 0 -- -- 48
2020-11-14 04:00:00 23.3 13 Sur 18 Sudoeste 0 -- -- 53
2020-11-14 03:00:00 23.3 9 Sur 18 Sur 0 -- -- 54
2020-11-14 02:00:00 21.8 4 Sur 9 Sur 0 -- -- 62
2020-11-14 01:00:00 22.2 5 Sur 13 Sur 0 -- -- 63
2020-11-14 00:00:00 21.1 8 Sudeste 13 Sur 0 -- -- 66
2020-11-13 23:00:00 22.1 10 Sudeste 21 Este 0 -- -- 61
2020-11-13 22:00:00 22.6 8 Sudeste 15 Sur 0 -- -- 57
2020-11-13 21:00:00 22.4 9 Sur 16 Sur 0 -- -- 57
2020-11-13 20:00:00 22 7 Sur 20 Sur 0 -- -- 58
2020-11-13 19:00:00 21.4 8 Sudoeste 14 Sudoeste 0 -- -- 60
2020-11-13 18:00:00 20.4 8 Sudeste 11 Sudeste 0 -- -- 76
2020-11-13 17:00:00 20.7 7 Este 15 Sudeste 0 -- -- 75
2020-11-13 16:00:00 21.7 10 Sudeste 16 Este 0 -- -- 68
2020-11-13 15:00:00 22.8 10 Sudeste 15 Sudeste 0 -- -- 56
2020-11-13 14:00:00 23.7 10 Sudeste 17 Este 0 -- -- 50
2020-11-13 13:00:00 23.2 9 Este 20 Este 0 -- -- 52
2020-11-13 12:00:00 22 9 Este 13 Este 0 -- -- 71
2020-11-13 11:00:00 20.5 3 Sudeste 14 Sudeste 0 -- -- 86
2020-11-13 10:00:00 19.3 5 Sudeste 12 Este 0 -- -- 93
2020-11-13 09:00:00 18.8 8 Sudeste 13 Sudeste 0 -- -- 94
2020-11-13 08:00:00 18.2 2 Sur 8 Sur 0 -- -- 95
2020-11-13 07:00:00 18.2 4 Sudoeste 7 Sur 0 -- -- 95
2020-11-13 06:00:00 18 5 Sudoeste 9 Sudoeste 0 -- -- 94
2020-11-13 05:00:00 18.1 0 Calma 8 Sur 0 -- -- 94
2020-11-13 04:00:00 18 3 Sur 10 Sur 0 -- -- 94
2020-11-13 03:00:00 17.9 6 Sur 9 Sur 0 -- -- 94
2020-11-13 02:00:00 17.7 3 Sur 7 Sudoeste 0 -- -- 94
2020-11-13 01:00:00 17.6 4 Sudoeste 8 Sudoeste 0 -- -- 93
2020-11-13 00:00:00 17.6 4 Sudoeste 8 Oeste 0 -- -- 92
2020-11-12 23:00:00 17.5 5 Oeste 6 Oeste 0 -- -- 90
2020-11-12 22:00:00 18.4 3 Sur 5 Sur 0 -- -- 90
2020-11-12 21:00:00 18.9 3 Este 5 Este 0 -- -- 89
2020-11-12 20:00:00 19.1 4 Este 10 Este 0 -- -- 87
2020-11-12 19:00:00 19.8 6 Este 10 Este 0 -- -- 83
2020-11-12 18:00:00 21.4 6 Este 13 Este 0 -- -- 76
2020-11-12 17:00:00 22.7 6 Este 11 Este 0 -- -- 71
2020-11-12 16:00:00 23.2 6 Este 14 Este 0 -- -- 68
2020-11-12 15:00:00 24 12 Norte 17 Nordeste 0 -- -- 64
2020-11-12 14:00:00 25.2 6 Este 13 Este 0 -- -- 49
2020-11-12 13:00:00 23.7 5 Sudeste 12 Sudeste 0 -- -- 56
2020-11-12 12:00:00 21.9 4 Sudeste 10 Este 0 -- -- 71
2020-11-12 11:00:00 20 4 Este 9 Este 0 -- -- 82
2020-11-12 10:00:00 18.7 0 Calma 4 Nordeste 0 -- -- 90
2020-11-12 09:00:00 18.1 2 Sur 5 Sudeste 0 -- -- 92
2020-11-12 08:00:00 17.4 3 Noroeste 6 Sudoeste 0 -- -- 92
2020-11-12 07:00:00 17.2 3 Sudoeste 8 Noroeste 0 -- -- 92
2020-11-12 06:00:00 17.2 3 Nordeste 6 Nordeste 0 -- -- 92
2020-11-12 05:00:00 17.6 3 Sudeste 9 Sudoeste 0 -- -- 92
2020-11-12 04:00:00 17.5 3 Sudoeste 10 Sur 0 -- -- 92
2020-11-12 03:00:00 17.1 3 Sudoeste 6 Sur 0 -- -- 91
2020-11-12 02:00:00 17 4 Noroeste 17 Norte 0 -- -- 90
2020-11-12 01:00:00 17.8 13 Noroeste 21 Noroeste 0 -- -- 89
2020-11-12 00:00:00 17.8 13 Noroeste 19 Noroeste 0 -- -- 88
2020-11-11 23:00:00 18.1 8 Norte 12 Norte 0 -- -- 86
2020-11-11 22:00:00 18.3 8 Noroeste 16 Noroeste 0 -- -- 86
2020-11-11 21:00:00 18.5 13 Norte 25 Noroeste 0 -- -- 86
2020-11-11 20:00:00 18.7 19 Noroeste 35 Noroeste 0 -- -- 84
2020-11-11 19:00:00 19 16 Noroeste 28 Norte 0 -- -- 82
2020-11-11 18:00:00 20.1 17 Norte 23 Norte 0 -- -- 77
2020-11-11 17:00:00 21.9 8 Nordeste 15 Noroeste 0 -- -- 71
2020-11-11 16:00:00 23.2 10 Norte 18 Este 0 -- -- 64
2020-11-11 15:00:00 23.4 7 Norte 17 Norte 0 -- -- 63
2020-11-11 14:00:00 24 5 Norte 15 Este 0 -- -- 60
2020-11-11 13:00:00 23 10 Este 16 Este 0 -- -- 65
2020-11-11 12:00:00 21.8 7 Este 13 Este 0 -- -- 71
2020-11-11 11:00:00 20.3 6 Sudeste 19 Este 0 -- -- 77
2020-11-11 10:00:00 18.4 4 Sudeste 9 Sur 0 -- -- 86
2020-11-11 09:00:00 17 4 Sur 7 Sudoeste 0 -- -- 91
2020-11-11 08:00:00 15.8 4 Sudoeste 7 Oeste 0 -- -- 94
2020-11-11 07:00:00 14.7 5 Noroeste 12 Noroeste 0 -- -- 94
2020-11-11 06:00:00 14.7 6 Noroeste 10 Noroeste 0 -- -- 94
2020-11-11 05:00:00 -- -- -- -- -- -- -- -- --
2020-11-11 04:00:00 -- -- -- -- -- -- -- -- --
2020-11-11 03:00:00 -- -- -- -- -- -- -- -- --
2020-11-11 02:00:00 -- -- -- -- -- -- -- -- --
2020-11-11 01:00:00 -- -- -- -- -- -- -- -- --
2020-11-11 00:00:00 -- -- -- -- -- -- -- -- --
2020-11-10 23:00:00 -- -- -- -- -- -- -- -- --
2020-11-10 22:00:00 -- -- -- -- -- -- -- -- --
2020-11-10 21:00:00 -- -- -- -- -- -- -- -- --
2020-11-10 20:00:00 -- -- -- -- -- -- -- -- --
2020-11-10 19:00:00 -- -- -- -- -- -- -- -- --
2020-11-10 18:00:00 -- -- -- -- -- -- -- -- --
2020-11-10 17:00:00 -- -- -- -- -- -- -- -- --
2020-11-10 16:00:00 -- -- -- -- -- -- -- -- --
2020-11-10 15:00:00 -- -- -- -- -- -- -- -- --
2020-11-10 14:00:00 -- -- -- -- -- -- -- -- --
2020-11-10 13:00:00 -- -- -- -- -- -- -- -- --
2020-11-10 12:00:00 -- -- -- -- -- -- -- -- --
2020-11-10 11:00:00 -- -- -- -- -- -- -- -- --
2020-11-10 10:00:00 -- -- -- -- -- -- -- -- --
2020-11-10 09:00:00 -- -- -- -- -- -- -- -- --
2020-11-10 08:00:00 -- -- -- -- -- -- -- -- --
2020-11-10 07:00:00 -- -- -- -- -- -- -- -- --
2020-11-10 06:00:00 -- -- -- -- -- -- -- -- --
2020-11-10 05:00:00 -- -- -- -- -- -- -- -- --
2020-11-10 04:00:00 -- -- -- -- -- -- -- -- --
2020-11-10 03:00:00 17.7 13 Nordeste 28 Nordeste 0 -- -- 85
2020-11-10 02:00:00 17.9 16 Nordeste 30 Nordeste 0 -- -- 86
2020-11-10 01:00:00 17.7 11 Norte 27 Nordeste 0 -- -- 86
2020-11-10 00:00:00 18 16 Nordeste 27 Nordeste 0 -- -- 87
2020-11-09 23:00:00 18.1 18 Nordeste 27 Nordeste 0 -- -- 86
2020-11-09 22:00:00 18.3 16 Nordeste 27 Nordeste 0 -- -- 87
2020-11-09 21:00:00 18.4 13 Nordeste 25 Este 0 -- -- 86
2020-11-09 20:00:00 18.4 14 Nordeste 25 Nordeste 0 -- -- 85
2020-11-09 19:00:00 18.6 18 Nordeste 29 Nordeste 0 -- -- 83
2020-11-09 18:00:00 19.4 16 Nordeste 30 Nordeste 0 -- -- 77
2020-11-09 17:00:00 20.4 18 Nordeste 30 Nordeste 0 -- -- 70
2020-11-09 16:00:00 21.7 18 Nordeste 30 Nordeste 0 -- -- 67
2020-11-09 15:00:00 22.3 20 Nordeste 32 Nordeste 0 -- -- 61
2020-11-09 14:00:00 22.3 20 Nordeste 30 Nordeste 0 -- -- 59
2020-11-09 13:00:00 22.1 20 Nordeste 32 Nordeste 0 -- -- 60
2020-11-09 12:00:00 21.5 19 Nordeste 31 Este 0 -- -- 64
2020-11-09 11:00:00 20.8 20 Nordeste 32 Nordeste 0 -- -- 69
2020-11-09 10:00:00 20 15 Nordeste 27 Nordeste 0 -- -- 75
2020-11-09 09:00:00 18.7 14 Nordeste 22 Nordeste 0 -- -- 82
2020-11-09 08:00:00 15.2 6 Norte 12 Norte 0 -- -- 93
2020-11-09 07:00:00 13.6 6 Noroeste 9 Noroeste 0 -- -- 93
2020-11-09 06:00:00 13.1 7 Noroeste 9 Noroeste 0 -- -- 93
2020-11-09 05:00:00 13.3 7 Noroeste 10 Noroeste 0 -- -- 91
2020-11-09 04:00:00 13.3 6 Noroeste 10 Noroeste 0 -- -- 91
2020-11-09 03:00:00 13.6 8 Noroeste 9 Noroeste 0 -- -- 90
2020-11-09 02:00:00 14.2 6 Norte 12 Noroeste 0 -- -- 88
2020-11-09 01:00:00 15.6 9 Noroeste 17 Noroeste 0 -- -- 87
2020-11-09 00:00:00 15.3 3 Nordeste 16 Noroeste 0 -- -- 83
2020-11-08 23:00:00 15.2 9 Noroeste 12 Noroeste 0 -- -- 87
2020-11-08 22:00:00 16.2 5 Noroeste 10 Norte 0 -- -- 87
2020-11-08 21:00:00 16.3 5 Noroeste 10 Este 0 -- -- 85
2020-11-08 20:00:00 17.4 4 Norte 15 Nordeste 0 -- -- 82
2020-11-08 19:00:00 18.4 10 Nordeste 17 Nordeste 0 -- -- 79
2020-11-08 18:00:00 19.4 10 Nordeste 20 Este 0 -- -- 73
2020-11-08 17:00:00 19.9 15 Nordeste 19 Nordeste 0 -- -- 70
2020-11-08 16:00:00 20.8 12 Nordeste 22 Este 0 -- -- 68
2020-11-08 15:00:00 21.4 15 Nordeste 23 Norte 0 -- -- 66
2020-11-08 14:00:00 22.4 14 Nordeste 32 Norte 0 -- -- 61
2020-11-08 13:00:00 22.3 9 Nordeste 20 Este 0 -- -- 61
2020-11-08 12:00:00 21.6 6 Este 21 Nordeste 0 -- -- 63
2020-11-08 11:00:00 21.4 12 Nordeste 22 Este 0 -- -- 66
2020-11-08 10:00:00 20.2 10 Este 17 Este 0 -- -- 74
2020-11-08 09:00:00 18.5 6 Norte 12 Nordeste 0 -- -- 86
2020-11-08 08:00:00 15.9 6 Noroeste 9 Noroeste 0 -- -- 89
2020-11-08 07:00:00 13.9 5 Noroeste 7 Noroeste 0 -- -- 78
2020-11-08 06:00:00 13.4 5 Oeste 8 Oeste 0 -- -- 78
2020-11-08 05:00:00 -- -- -- -- -- -- -- -- --
2020-11-08 04:00:00 -- -- -- -- -- -- -- -- --
2020-11-08 03:00:00 -- -- -- -- -- -- -- -- --
2020-11-08 02:00:00 -- -- -- -- -- -- -- -- --
2020-11-08 01:00:00 -- -- -- -- -- -- -- -- --
2020-11-08 00:00:00 -- -- -- -- -- -- -- -- --
2020-11-07 23:00:00 -- -- -- -- -- -- -- -- --
2020-11-07 22:00:00 -- -- -- -- -- -- -- -- --
2020-11-07 21:00:00 -- -- -- -- -- -- -- -- --
2020-11-07 20:00:00 -- -- -- -- -- -- -- -- --
2020-11-07 19:00:00 -- -- -- -- -- -- -- -- --
2020-11-07 18:00:00 -- -- -- -- -- -- -- -- --
2020-11-07 17:00:00 -- -- -- -- -- -- -- -- --
2020-11-07 16:00:00 -- -- -- -- -- -- -- -- --
2020-11-07 15:00:00 -- -- -- -- -- -- -- -- --
2020-11-07 14:00:00 -- -- -- -- -- -- -- -- --
2020-11-07 13:00:00 -- -- -- -- -- -- -- -- --
2020-11-07 12:00:00 -- -- -- -- -- -- -- -- --
2020-11-07 11:00:00 -- -- -- -- -- -- -- -- --
2020-11-07 10:00:00 -- -- -- -- -- -- -- -- --
2020-11-07 09:00:00 -- -- -- -- -- -- -- -- --
2020-11-07 08:00:00 -- -- -- -- -- -- -- -- --
2020-11-07 07:00:00 -- -- -- -- -- -- -- -- --
2020-11-07 06:00:00 -- -- -- -- -- -- -- -- --
2020-11-07 05:00:00 -- -- -- -- -- -- -- -- --
2020-11-07 04:00:00 -- -- -- -- -- -- -- -- --
2020-11-07 03:00:00 -- -- -- -- -- -- -- -- --
2020-11-07 02:00:00 15.1 4 Noroeste 8 Noroeste 0 -- -- 83
2020-11-07 01:00:00 15.6 7 Noroeste 8 Noroeste 0 -- -- 76
2020-11-07 00:00:00 15.9 3 Noroeste 7 Noroeste 0 -- -- 79
2020-11-06 23:00:00 17.4 2 Sur 11 Noroeste 0 -- -- 81
2020-11-06 22:00:00 18.2 5 Sudeste 17 Noroeste 0 -- -- 81
2020-11-06 21:00:00 17.1 3 Noroeste 9 Noroeste 0 -- -- 83
2020-11-06 20:00:00 18.2 7 Noroeste 17 Oeste 0 -- -- 81
2020-11-06 19:00:00 19 16 Oeste 25 Oeste 0 -- -- 80
2020-11-06 18:00:00 19.4 16 Oeste 28 Oeste 0 -- -- 75
2020-11-06 17:00:00 20.1 19 Noroeste 31 Noroeste 0 -- -- 73
2020-11-06 16:00:00 20.7 21 Noroeste 40 Oeste 0 -- -- 72
2020-11-06 15:00:00 21.1 15 Sudoeste 48 Oeste 0 -- -- 75
2020-11-06 14:00:00 20.5 19 Oeste 39 Oeste 0.2 -- -- 78
2020-11-06 13:00:00 21.9 27 Sudoeste 55 Sudoeste 0 -- -- 68
2020-11-06 12:00:00 21.7 34 Sudoeste 54 Sudoeste 0 -- -- 68
2020-11-06 11:00:00 21.3 36 Sudoeste 63 Sudoeste 0 -- -- 68
2020-11-06 10:00:00 21.3 30 Sudoeste 52 Sudoeste 0 -- -- 67
2020-11-06 09:00:00 19.8 30 Sudoeste 45 Sudoeste 0 -- -- 73
2020-11-06 08:00:00 18.6 27 Sudoeste 45 Sudoeste 0 -- -- 78
2020-11-06 07:00:00 18 29 Sudoeste 45 Sudoeste 0 -- -- 76
2020-11-06 06:00:00 18 23 Sudoeste 44 Sudoeste 0 -- -- 77
2020-11-06 05:00:00 18.4 26 Sudoeste 39 Sudoeste 0 -- -- 81
2020-11-06 04:00:00 18.3 22 Sudoeste 37 Sudoeste 0 -- -- 79
2020-11-06 03:00:00 18.1 23 Sudoeste 35 Sudoeste 0 -- -- 82
2020-11-06 02:00:00 17.9 20 Sudoeste 33 Sudoeste 0.4 -- -- 88
2020-11-06 01:00:00 17.5 8 Sudeste 33 Sudoeste 0.2 -- -- 87
2020-11-06 00:00:00 17.1 23 Oeste 36 Oeste 0.2 -- -- 87
2020-11-05 23:00:00 17.7 14 Sur 22 Sur 0 -- -- 85
2020-11-05 22:00:00 17.9 14 Sur 21 Sur 0 -- -- 84
2020-11-05 21:00:00 17.2 3 Sur 16 Sur 0 -- -- 86
2020-11-05 20:00:00 17.6 9 Sur 21 Sur 0 -- -- 84
2020-11-05 19:00:00 18.3 16 Sur 24 Sur 0 -- -- 81
2020-11-05 18:00:00 19.2 19 Sur 30 Sur 0 -- -- 73
2020-11-05 17:00:00 20.6 19 Sur 30 Sur 0 -- -- 61
2020-11-05 16:00:00 21 15 Sudoeste 33 Sudoeste 0 -- -- 58
2020-11-05 15:00:00 21.4 14 Sudoeste 37 Oeste 0 -- -- 54
2020-11-05 14:00:00 21.8 10 Sudoeste 25 Sudoeste 0 -- -- 49
2020-11-05 13:00:00 22.2 13 Sudoeste 27 Sudoeste 0 -- -- 49
2020-11-05 12:00:00 21.3 15 Oeste 27 Sudoeste 0 -- -- 53
2020-11-05 11:00:00 20.8 9 Sudoeste 18 Sudoeste 0 -- -- 56
2020-11-05 10:00:00 19.5 8 Noroeste 17 Oeste 0 -- -- 61
2020-11-05 09:00:00 18.2 10 Oeste 17 Sudoeste 0 -- -- 70
2020-11-05 08:00:00 16.2 -- -- -- -- 0 -- -- --
2020-11-05 07:00:00 14.6 10 Oeste 14 Oeste 0 -- -- 85
2020-11-05 06:00:00 13.5 2 Oeste 14 Oeste 0 -- -- 88
2020-11-05 05:00:00 13.9 0 Calma 11 Noroeste 0 -- -- 88
2020-11-05 04:00:00 -- -- -- -- -- -- -- -- --
2020-11-05 03:00:00 -- -- -- -- -- -- -- -- --
2020-11-05 02:00:00 -- -- -- -- -- -- -- -- --
2020-11-05 01:00:00 -- -- -- -- -- -- -- -- --
2020-11-05 00:00:00 -- -- -- -- -- -- -- -- --